createdAt,value
2022-12-03T00:05:53.944Z,21.25
2022-12-03T00:20:55.402Z,21.75
2022-12-03T00:35:56.820Z,26.42
2022-12-03T00:50:58.199Z,28.40
2022-12-03T01:05:59.644Z,34.60
2022-12-03T01:21:01.039Z,39.00
2022-12-03T01:36:02.483Z,39.33
2022-12-03T01:51:03.897Z,36.20
2022-12-03T02:06:05.272Z,47.65
2022-12-03T02:21:06.884Z,48.50
2022-12-03T02:36:08.264Z,43.55
2022-12-03T02:51:09.706Z,46.58
2022-12-03T03:06:11.107Z,42.60
2022-12-03T03:21:12.500Z,46.53
2022-12-03T03:36:13.898Z,45.58
2022-12-03T03:51:15.333Z,43.83
2022-12-03T04:06:16.758Z,46.80
2022-12-03T04:21:37.844Z,55.42
2022-12-03T04:36:39.277Z,56.97
2022-12-03T04:51:40.655Z,58.70
2022-12-03T05:06:42.068Z,50.42
2022-12-03T05:21:43.453Z,46.47
2022-12-03T05:36:44.821Z,51.80
2022-12-03T05:51:46.218Z,55.58
2022-12-03T06:06:47.648Z,54.08
2022-12-03T06:21:49.022Z,50.88
2022-12-03T06:36:50.456Z,50.92
2022-12-03T06:51:51.872Z,54.50
2022-12-03T07:06:53.274Z,50.72
2022-12-03T07:21:57.939Z,40.92
2022-12-03T07:36:59.593Z,41.67
2022-12-03T07:52:01.041Z,42.50
2022-12-03T08:07:17.526Z,33.60
2022-12-03T08:22:19.097Z,34.70
2022-12-03T08:37:20.499Z,33.90
2022-12-03T08:52:21.937Z,38.25
2022-12-03T09:07:23.419Z,36.05
2022-12-03T09:22:24.826Z,46.22
2022-12-03T09:37:26.279Z,41.30
2022-12-03T09:52:30.971Z,38.85
2022-12-03T10:07:32.510Z,42.35
2022-12-03T10:22:37.147Z,35.88
2022-12-03T10:37:46.157Z,39.78
2022-12-03T10:52:48.570Z,36.53
2022-12-03T11:07:52.475Z,36.42
2022-12-03T11:22:54.036Z,38.10
2022-12-03T11:37:55.481Z,40.75
2022-12-03T11:52:56.849Z,36.63
2022-12-03T12:07:58.949Z,34.53
2022-12-03T12:23:01.820Z,43.08
2022-12-03T12:38:03.529Z,44.70
2022-12-03T12:53:04.956Z,48.00
2022-12-03T13:08:10.360Z,44.13
2022-12-03T13:23:12.580Z,39.80
2022-12-03T13:38:13.966Z,47.10
2022-12-03T13:53:15.554Z,38.67
2022-12-03T14:08:17.183Z,32.00
2022-12-03T14:23:18.834Z,37.58
2022-12-03T14:38:20.286Z,38.30
2022-12-03T14:53:27.028Z,33.88
2022-12-03T15:08:28.993Z,37.80
2022-12-03T15:23:31.505Z,39.38
2022-12-03T15:38:33.543Z,34.13
2022-12-03T15:53:34.936Z,46.80
2022-12-03T16:08:36.440Z,40.03
2022-12-03T16:23:39.947Z,39.58
2022-12-03T16:38:41.817Z,44.78
2022-12-03T16:53:43.216Z,47.75
2022-12-03T17:08:49.351Z,50.35
2022-12-03T17:23:51.245Z,48.75
2022-12-03T17:38:52.714Z,44.58
2022-12-03T17:53:54.132Z,54.95
2022-12-03T18:08:55.611Z,56.13
2022-12-03T18:23:57.019Z,49.47
2022-12-03T18:38:58.417Z,36.58
2022-12-03T18:53:59.809Z,42.60
2022-12-03T19:09:01.225Z,43.67
2022-12-03T19:24:25.980Z,39.78
2022-12-03T19:39:24.200Z,37.90
2022-12-03T19:54:26.021Z,36.50
2022-12-03T20:09:27.671Z,37.33
2022-12-03T20:24:29.156Z,42.33
2022-12-03T20:39:30.541Z,46.58
2022-12-03T20:54:31.991Z,45.63
2022-12-03T21:09:33.397Z,45.35
2022-12-03T21:24:35.337Z,34.63
2022-12-03T21:39:36.827Z,39.45
2022-12-03T21:54:38.224Z,35.85
2022-12-03T22:09:39.610Z,45.70
2022-12-03T22:24:41.075Z,36.70
2022-12-03T22:39:42.492Z,36.03
2022-12-03T22:54:44.408Z,34.90
2022-12-03T23:09:46.067Z,36.95
2022-12-03T23:24:47.440Z,35.75
2022-12-03T23:39:48.824Z,37.33
2022-12-03T23:54:50.251Z,31.00
